sensor_id;sensor_type;location;lat;lon;timestamp;pressure;altitude;pressure_sealevel;temperature;humidity
13800;BME280;6971;50.028;9.258;2023-03-16T00:01:36;99893.44;;;-3.28;100.00
13800;BME280;6971;50.028;9.258;2023-03-16T00:06:36;99894.31;;;-3.26;100.00
13800;BME280;6971;50.028;9.258;2023-03-16T00:11:36;99900.28;;;-3.32;100.00
13800;BME280;6971;50.028;9.258;2023-03-16T00:16:37;99907.22;;;-3.26;100.00
13800;BME280;6971;50.028;9.258;2023-03-16T00:21:37;99898.50;;;-3.36;100.00
13800;BME280;6971;50.028;9.258;2023-03-16T00:26:37;99909.78;;;-3.28;100.00
13800;BME280;6971;50.028;9.258;2023-03-16T00:31:38;99903.53;;;-3.48;100.00
13800;BME280;6971;50.028;9.258;2023-03-16T00:36:39;99906.09;;;-3.50;100.00
13800;BME280;6971;50.028;9.258;2023-03-16T00:41:41;99903.47;;;-3.55;100.00
13800;BME280;6971;50.028;9.258;2023-03-16T00:46:42;99891.41;;;-3.59;100.00
13800;BME280;6971;50.028;9.258;2023-03-16T00:51:42;99894.81;;;-3.61;100.00
13800;BME280;6971;50.028;9.258;2023-03-16T00:56:45;99883.56;;;-3.68;100.00
13800;BME280;6971;50.028;9.258;2023-03-16T01:01:45;99879.25;;;-3.68;100.00
13800;BME280;6971;50.028;9.258;2023-03-16T01:06:46;99878.28;;;-3.77;100.00
13800;BME280;6971;50.028;9.258;2023-03-16T01:11:46;99881.72;;;-3.78;100.00
13800;BME280;6971;50.028;9.258;2023-03-16T01:16:52;99871.31;;;-3.86;100.00
13800;BME280;6971;50.028;9.258;2023-03-16T01:21:53;99876.44;;;-3.88;100.00
13800;BME280;6971;50.028;9.258;2023-03-16T01:26:53;99880.75;;;-3.87;100.00
13800;BME280;6971;50.028;9.258;2023-03-16T01:31:53;99884.25;;;-3.80;100.00
13800;BME280;6971;50.028;9.258;2023-03-16T01:36:55;99884.13;;;-3.91;100.00
13800;BME280;6971;50.028;9.258;2023-03-16T01:41:55;99877.81;;;-4.15;100.00
13800;BME280;6971;50.028;9.258;2023-03-16T01:46:56;99867.59;;;-4.09;100.00
13800;BME280;6971;50.028;9.258;2023-03-16T01:52:07;99866.78;;;-4.06;100.00
13800;BME280;6971;50.028;9.258;2023-03-16T01:57:12;99857.31;;;-4.07;100.00
13800;BME280;6971;50.028;9.258;2023-03-16T02:02:18;99848.78;;;-4.04;100.00
13800;BME280;6971;50.028;9.258;2023-03-16T02:07:21;99846.00;;;-4.20;100.00
13800;BME280;6971;50.028;9.258;2023-03-16T02:12:23;99834.03;;;-4.16;100.00
13800;BME280;6971;50.028;9.258;2023-03-16T02:17:27;99821.13;;;-4.18;100.00
13800;BME280;6971;50.028;9.258;2023-03-16T02:22:28;99827.16;;;-4.17;100.00
13800;BME280;6971;50.028;9.258;2023-03-16T02:32:38;99822.00;;;-4.17;100.00
13800;BME280;6971;50.028;9.258;2023-03-16T02:37:39;99834.94;;;-4.14;100.00
13800;BME280;6971;50.028;9.258;2023-03-16T02:42:41;99845.22;;;-4.16;100.00
13800;BME280;6971;50.028;9.258;2023-03-16T02:47:42;99831.41;;;-4.21;100.00
13800;BME280;6971;50.028;9.258;2023-03-16T02:52:43;99827.19;;;-4.16;100.00
13800;BME280;6971;50.028;9.258;2023-03-16T02:57:44;99820.28;;;-4.20;100.00
13800;BME280;6971;50.028;9.258;2023-03-16T03:02:44;99814.22;;;-4.22;100.00
13800;BME280;6971;50.028;9.258;2023-03-16T03:07:44;99824.50;;;-4.24;100.00
13800;BME280;6971;50.028;9.258;2023-03-16T03:12:45;99807.16;;;-4.39;100.00
13800;BME280;6971;50.028;9.258;2023-03-16T03:17:48;99802.13;;;-4.29;100.00
13800;BME280;6971;50.028;9.258;2023-03-16T03:22:50;99803.78;;;-4.35;100.00
13800;BME280;6971;50.028;9.258;2023-03-16T03:27:51;99791.84;;;-4.29;100.00
13800;BME280;6971;50.028;9.258;2023-03-16T03:32:53;99794.28;;;-4.37;100.00
13800;BME280;6971;50.028;9.258;2023-03-16T03:37:54;99795.28;;;-4.27;100.00
13800;BME280;6971;50.028;9.258;2023-03-16T03:42:56;99789.28;;;-4.26;100.00
13800;BME280;6971;50.028;9.258;2023-03-16T03:47:56;99785.00;;;-4.27;100.00
13800;BME280;6971;50.028;9.258;2023-03-16T03:52:57;99782.47;;;-4.23;100.00
13800;BME280;6971;50.028;9.258;2023-03-16T03:57:57;99784.09;;;-4.31;100.00
13800;BME280;6971;50.028;9.258;2023-03-16T04:02:58;99785.06;;;-4.23;100.00
13800;BME280;6971;50.028;9.258;2023-03-16T04:07:58;99786.84;;;-4.15;100.00
13800;BME280;6971;50.028;9.258;2023-03-16T04:12:58;99772.31;;;-4.09;100.00
13800;BME280;6971;50.028;9.258;2023-03-16T04:17:59;99779.28;;;-4.01;100.00
13800;BME280;6971;50.028;9.258;2023-03-16T04:23:01;99776.91;;;-3.86;100.00
13800;BME280;6971;50.028;9.258;2023-03-16T04:28:01;99775.94;;;-3.91;100.00
13800;BME280;6971;50.028;9.258;2023-03-16T04:33:01;99768.34;;;-3.83;100.00
13800;BME280;6971;50.028;9.258;2023-03-16T04:38:02;99764.94;;;-3.77;100.00
13800;BME280;6971;50.028;9.258;2023-03-16T04:43:03;99764.06;;;-3.80;100.00
13800;BME280;6971;50.028;9.258;2023-03-16T04:48:03;99758.09;;;-3.75;100.00
13800;BME280;6971;50.028;9.258;2023-03-16T04:53:03;99769.25;;;-3.76;100.00
13800;BME280;6971;50.028;9.258;2023-03-16T04:58:04;99766.72;;;-3.70;100.00
13800;BME280;6971;50.028;9.258;2023-03-16T05:03:04;99766.78;;;-3.65;100.00
13800;BME280;6971;50.028;9.258;2023-03-16T05:08:05;99771.09;;;-3.60;100.00
13800;BME280;6971;50.028;9.258;2023-03-16T05:13:06;99758.34;;;-3.50;100.00
13800;BME280;6971;50.028;9.258;2023-03-16T05:18:06;99762.72;;;-3.40;100.00
13800;BME280;6971;50.028;9.258;2023-03-16T05:23:07;99759.28;;;-3.37;100.00
13800;BME280;6971;50.028;9.258;2023-03-16T05:28:07;99758.47;;;-3.32;100.00
13800;BME280;6971;50.028;9.258;2023-03-16T05:33:08;99750.91;;;-3.11;100.00
13800;BME280;6971;50.028;9.258;2023-03-16T05:38:08;99752.66;;;-3.06;100.00
13800;BME280;6971;50.028;9.258;2023-03-16T05:43:12;99757.81;;;-3.04;100.00
13800;BME280;6971;50.028;9.258;2023-03-16T05:48:13;99760.53;;;-2.81;100.00
13800;BME280;6971;50.028;9.258;2023-03-16T05:53:17;99767.50;;;-2.70;100.00
13800;BME280;6971;50.028;9.258;2023-03-16T05:58:17;99758.91;;;-2.69;100.00
13800;BME280;6971;50.028;9.258;2023-03-16T06:03:18;99752.00;;;-2.72;100.00
13800;BME280;6971;50.028;9.258;2023-03-16T06:08:18;99760.72;;;-2.53;100.00
13800;BME280;6971;50.028;9.258;2023-03-16T06:13:18;99765.91;;;-2.40;100.00
13800;BME280;6971;50.028;9.258;2023-03-16T06:18:19;99765.19;;;-2.10;100.00
13800;BME280;6971;50.028;9.258;2023-03-16T06:23:19;99752.25;;;-2.11;100.00
13800;BME280;6971;50.028;9.258;2023-03-16T06:28:21;99758.34;;;-1.86;100.00
13800;BME280;6971;50.028;9.258;2023-03-16T06:33:22;99770.44;;;-1.71;100.00
13800;BME280;6971;50.028;9.258;2023-03-16T06:38:23;99766.16;;;-1.68;100.00
13800;BME280;6971;50.028;9.258;2023-03-16T06:43:23;99769.59;;;-1.38;100.00
13800;BME280;6971;50.028;9.258;2023-03-16T06:48:23;99785.09;;;-1.49;100.00
13800;BME280;6971;50.028;9.258;2023-03-16T06:53:24;99784.28;;;-1.31;100.00
13800;BME280;6971;50.028;9.258;2023-03-16T06:58:25;99782.56;;;-1.12;100.00
13800;BME280;6971;50.028;9.258;2023-03-16T07:03:25;99778.22;;;-1.00;100.00
13800;BME280;6971;50.028;9.258;2023-03-16T07:08:26;99773.84;;;-0.73;100.00
13800;BME280;6971;50.028;9.258;2023-03-16T07:13:26;99781.59;;;-0.62;100.00
13800;BME280;6971;50.028;9.258;2023-03-16T07:18:27;99783.31;;;-0.52;100.00
13800;BME280;6971;50.028;9.258;2023-03-16T07:23:29;99772.91;;;-0.36;100.00
13800;BME280;6971;50.028;9.258;2023-03-16T07:28:29;99770.25;;;-0.22;100.00
13800;BME280;6971;50.028;9.258;2023-03-16T07:33:32;99771.09;;;-0.11;100.00
13800;BME280;6971;50.028;9.258;2023-03-16T07:38:33;99776.19;;;0.09;100.00
13800;BME280;6971;50.028;9.258;2023-03-16T07:43:34;99775.19;;;0.29;100.00
13800;BME280;6971;50.028;9.258;2023-03-16T07:48:34;99776.47;;;0.91;100.00
13800;BME280;6971;50.028;9.258;2023-03-16T07:53:34;99780.34;;;1.37;100.00
13800;BME280;6971;50.028;9.258;2023-03-16T07:58:35;99783.72;;;1.46;100.00
13800;BME280;6971;50.028;9.258;2023-03-16T08:03:37;99785.41;;;1.51;100.00
13800;BME280;6971;50.028;9.258;2023-03-16T08:08:37;99779.03;;;1.77;100.00
13800;BME280;6971;50.028;9.258;2023-03-16T08:13:38;99775.50;;;2.47;98.30
13800;BME280;6971;50.028;9.258;2023-03-16T08:18:38;99785.16;;;3.45;90.61
13800;BME280;6971;50.028;9.258;2023-03-16T08:23:38;99783.94;;;4.07;88.21
13800;BME280;6971;50.028;9.258;2023-03-16T08:28:39;99775.25;;;3.64;87.72
13800;BME280;6971;50.028;9.258;2023-03-16T08:33:41;99788.66;;;3.88;85.21
13800;BME280;6971;50.028;9.258;2023-03-16T08:38:42;99786.69;;;4.39;83.39
13800;BME280;6971;50.028;9.258;2023-03-16T08:43:43;99787.97;;;4.22;84.06
13800;BME280;6971;50.028;9.258;2023-03-16T08:48:46;99793.63;;;4.79;82.84
13800;BME280;6971;50.028;9.258;2023-03-16T08:53:47;99792.47;;;5.25;79.19
13800;BME280;6971;50.028;9.258;2023-03-16T08:58:48;99788.09;;;4.54;82.07
13800;BME280;6971;50.028;9.258;2023-03-16T09:03:48;99786.91;;;5.70;78.67
13800;BME280;6971;50.028;9.258;2023-03-16T09:08:50;99790.72;;;5.58;76.89
13800;BME280;6971;50.028;9.258;2023-03-16T09:13:50;99787.50;;;6.12;75.53
13800;BME280;6971;50.028;9.258;2023-03-16T09:18:51;99779.25;;;5.94;74.98
13800;BME280;6971;50.028;9.258;2023-03-16T09:23:52;99773.84;;;6.31;74.78
13800;BME280;6971;50.028;9.258;2023-03-16T09:28:53;99772.78;;;6.65;73.02
13800;BME280;6971;50.028;9.258;2023-03-16T09:33:54;99762.22;;;6.95;70.75
13800;BME280;6971;50.028;9.258;2023-03-16T09:38:54;99765.88;;;7.16;70.28
13800;BME280;6971;50.028;9.258;2023-03-16T09:44:06;99768.97;;;7.28;71.05
13800;BME280;6971;50.028;9.258;2023-03-16T09:49:11;99771.84;;;6.95;70.95
13800;BME280;6971;50.028;9.258;2023-03-16T09:54:22;99776.34;;;7.16;70.07
13800;BME280;6971;50.028;9.258;2023-03-16T09:59:26;99770.09;;;6.39;71.32
13800;BME280;6971;50.028;9.258;2023-03-16T10:09:58;99752.34;;;7.29;68.33
13800;BME280;6971;50.028;9.258;2023-03-16T10:15:05;99738.66;;;7.44;69.15
13800;BME280;6971;50.028;9.258;2023-03-16T10:20:15;99740.66;;;7.12;68.91
13800;BME280;6971;50.028;9.258;2023-03-16T10:25:28;99740.69;;;7.36;68.19
13800;BME280;6971;50.028;9.258;2023-03-16T10:30:34;99734.81;;;8.25;65.90
13800;BME280;6971;50.028;9.258;2023-03-16T10:40:43;99759.00;;;7.87;65.97
13800;BME280;6971;50.028;9.258;2023-03-16T10:45:44;99757.03;;;7.92;66.92
13800;BME280;6971;50.028;9.258;2023-03-16T10:50:50;99760.47;;;8.63;62.63
13800;BME280;6971;50.028;9.258;2023-03-16T10:55:58;99750.56;;;8.47;64.74
13800;BME280;6971;50.028;9.258;2023-03-16T11:00:58;99744.28;;;7.59;66.29
13800;BME280;6971;50.028;9.258;2023-03-16T11:06:04;99746.03;;;8.06;66.28
13800;BME280;6971;50.028;9.258;2023-03-16T11:11:28;99732.09;;;8.04;65.64
13800;BME280;6971;50.028;9.258;2023-03-16T11:16:38;99729.56;;;7.79;65.52
13800;BME280;6971;50.028;9.258;2023-03-16T11:22:01;99719.91;;;7.55;68.26
13800;BME280;6971;50.028;9.258;2023-03-16T11:27:03;99724.75;;;7.66;66.67
13800;BME280;6971;50.028;9.258;2023-03-16T11:32:14;99717.13;;;8.53;64.91
13800;BME280;6971;50.028;9.258;2023-03-16T11:37:28;99710.31;;;8.25;64.88
13800;BME280;6971;50.028;9.258;2023-03-16T11:42:37;99697.63;;;8.79;63.97
13800;BME280;6971;50.028;9.258;2023-03-16T11:47:48;99682.44;;;9.27;63.62
13800;BME280;6971;50.028;9.258;2023-03-16T11:53:11;99679.47;;;8.94;63.31
13800;BME280;6971;50.028;9.258;2023-03-16T12:03:42;99683.84;;;9.35;62.48
13800;BME280;6971;50.028;9.258;2023-03-16T12:14:07;99692.13;;;9.65;62.33
13800;BME280;6971;50.028;9.258;2023-03-16T12:19:16;99667.31;;;9.12;62.93
13800;BME280;6971;50.028;9.258;2023-03-16T12:24:26;99641.03;;;10.43;60.38
13800;BME280;6971;50.028;9.258;2023-03-16T12:29:52;99645.03;;;10.52;59.91
13800;BME280;6971;50.028;9.258;2023-03-16T12:35:04;99643.25;;;10.70;59.04
13800;BME280;6971;50.028;9.258;2023-03-16T12:40:20;99626.22;;;10.05;59.12
13800;BME280;6971;50.028;9.258;2023-03-16T12:45:55;99632.16;;;9.34;62.42
13800;BME280;6971;50.028;9.258;2023-03-16T12:51:00;99631.44;;;7.83;64.01
13800;BME280;6971;50.028;9.258;2023-03-16T12:56:05;99622.56;;;9.71;61.41
13800;BME280;6971;50.028;9.258;2023-03-16T13:01:10;99605.63;;;9.58;59.74
13800;BME280;6971;50.028;9.258;2023-03-16T13:06:21;99611.66;;;9.02;62.73
13800;BME280;6971;50.028;9.258;2023-03-16T13:11:22;99588.38;;;9.52;62.25
13800;BME280;6971;50.028;9.258;2023-03-16T13:16:30;99584.16;;;8.90;61.57
13800;BME280;6971;50.028;9.258;2023-03-16T13:21:40;99591.03;;;8.93;62.32
13800;BME280;6971;50.028;9.258;2023-03-16T13:26:45;99579.34;;;9.00;62.82
13800;BME280;6971;50.028;9.258;2023-03-16T13:31:46;99570.25;;;9.26;60.76
13800;BME280;6971;50.028;9.258;2023-03-16T13:36:49;99580.88;;;8.85;61.30
13800;BME280;6971;50.028;9.258;2023-03-16T13:47:12;99554.28;;;8.51;61.69
13800;BME280;6971;50.028;9.258;2023-03-16T13:52:21;99550.56;;;8.57;63.37
13800;BME280;6971;50.028;9.258;2023-03-16T13:57:34;99535.34;;;8.65;62.09
13800;BME280;6971;50.028;9.258;2023-03-16T14:02:40;99518.09;;;8.79;61.19
13800;BME280;6971;50.028;9.258;2023-03-16T14:07:41;99513.81;;;8.95;60.37
13800;BME280;6971;50.028;9.258;2023-03-16T14:12:56;99520.13;;;8.91;60.26
13800;BME280;6971;50.028;9.258;2023-03-16T14:18:17;99519.84;;;9.36;60.11
13800;BME280;6971;50.028;9.258;2023-03-16T14:23:23;99513.22;;;8.69;60.86
13800;BME280;6971;50.028;9.258;2023-03-16T14:28:29;99520.72;;;8.98;60.37
13800;BME280;6971;50.028;9.258;2023-03-16T14:33:32;99489.78;;;9.22;60.76
13800;BME280;6971;50.028;9.258;2023-03-16T14:38:34;99486.59;;;9.16;60.71
13800;BME280;6971;50.028;9.258;2023-03-16T14:43:44;99476.00;;;9.17;61.36
13800;BME280;6971;50.028;9.258;2023-03-16T14:48:45;99486.47;;;9.19;61.28
13800;BME280;6971;50.028;9.258;2023-03-16T14:53:45;99480.94;;;9.06;61.45
13800;BME280;6971;50.028;9.258;2023-03-16T14:58:46;99485.97;;;8.91;61.33
13800;BME280;6971;50.028;9.258;2023-03-16T15:03:46;99472.13;;;8.68;62.08
13800;BME280;6971;50.028;9.258;2023-03-16T15:08:46;99465.31;;;8.43;61.72
13800;BME280;6971;50.028;9.258;2023-03-16T15:13:47;99465.53;;;8.59;61.97
13800;BME280;6971;50.028;9.258;2023-03-16T15:18:48;99450.97;;;8.51;61.98
13800;BME280;6971;50.028;9.258;2023-03-16T15:23:48;99452.69;;;8.52;62.36
13800;BME280;6971;50.028;9.258;2023-03-16T15:28:49;99446.44;;;8.35;63.31
13800;BME280;6971;50.028;9.258;2023-03-16T15:33:49;99450.03;;;8.53;62.45
13800;BME280;6971;50.028;9.258;2023-03-16T15:38:52;99447.53;;;8.50;62.43
13800;BME280;6971;50.028;9.258;2023-03-16T15:43:53;99435.88;;;8.56;62.40
13800;BME280;6971;50.028;9.258;2023-03-16T15:48:59;99447.91;;;8.61;62.85
13800;BME280;6971;50.028;9.258;2023-03-16T15:54:02;99443.44;;;8.43;62.63
13800;BME280;6971;50.028;9.258;2023-03-16T15:59:04;99433.06;;;8.40;62.72
13800;BME280;6971;50.028;9.258;2023-03-16T16:04:12;99424.38;;;8.39;61.88
13800;BME280;6971;50.028;9.258;2023-03-16T16:09:14;99417.06;;;8.46;63.10
13800;BME280;6971;50.028;9.258;2023-03-16T16:14:18;99427.63;;;8.44;63.02
13800;BME280;6971;50.028;9.258;2023-03-16T16:19:21;99411.50;;;8.33;63.21
13800;BME280;6971;50.028;9.258;2023-03-16T16:24:21;99409.66;;;8.35;63.19
13800;BME280;6971;50.028;9.258;2023-03-16T16:29:25;99403.25;;;8.21;63.13
13800;BME280;6971;50.028;9.258;2023-03-16T16:34:26;99414.66;;;8.20;63.21
13800;BME280;6971;50.028;9.258;2023-03-16T16:39:27;99415.94;;;8.12;64.53
13800;BME280;6971;50.028;9.258;2023-03-16T16:44:29;99413.50;;;8.07;63.69
13800;BME280;6971;50.028;9.258;2023-03-16T16:49:30;99415.16;;;7.89;65.27
13800;BME280;6971;50.028;9.258;2023-03-16T16:54:30;99415.88;;;7.71;68.24
13800;BME280;6971;50.028;9.258;2023-03-16T16:59:33;99411.78;;;7.43;69.09
13800;BME280;6971;50.028;9.258;2023-03-16T17:04:35;99401.81;;;7.31;67.60
13800;BME280;6971;50.028;9.258;2023-03-16T17:09:36;99404.69;;;7.02;71.68
13800;BME280;6971;50.028;9.258;2023-03-16T17:14:36;99398.72;;;6.99;68.97
13800;BME280;6971;50.028;9.258;2023-03-16T17:19:36;99389.13;;;6.75;72.07
13800;BME280;6971;50.028;9.258;2023-03-16T17:24:37;99388.16;;;6.56;73.60
13800;BME280;6971;50.028;9.258;2023-03-16T17:29:37;99390.56;;;6.60;70.32
13800;BME280;6971;50.028;9.258;2023-03-16T17:34:37;99391.94;;;6.71;68.70
13800;BME280;6971;50.028;9.258;2023-03-16T17:39:38;99388.50;;;6.46;70.44
13800;BME280;6971;50.028;9.258;2023-03-16T17:44:49;99392.94;;;6.44;70.53
13800;BME280;6971;50.028;9.258;2023-03-16T17:49:50;99390.13;;;6.25;72.14
13800;BME280;6971;50.028;9.258;2023-03-16T17:54:52;99385.66;;;6.29;72.05
13800;BME280;6971;50.028;9.258;2023-03-16T17:59:53;99380.47;;;6.27;72.63
13800;BME280;6971;50.028;9.258;2023-03-16T18:04:54;99382.41;;;6.22;72.32
13800;BME280;6971;50.028;9.258;2023-03-16T18:09:54;99376.72;;;6.10;72.55
13800;BME280;6971;50.028;9.258;2023-03-16T18:14:54;99373.81;;;6.18;72.57
13800;BME280;6971;50.028;9.258;2023-03-16T18:20:00;99365.31;;;6.11;72.33
13800;BME280;6971;50.028;9.258;2023-03-16T18:25:01;99352.28;;;6.10;71.84
13800;BME280;6971;50.028;9.258;2023-03-16T18:30:01;99358.44;;;6.09;72.08
13800;BME280;6971;50.028;9.258;2023-03-16T18:35:02;99363.63;;;6.10;71.50
13800;BME280;6971;50.028;9.258;2023-03-16T18:40:03;99363.00;;;6.02;71.27
13800;BME280;6971;50.028;9.258;2023-03-16T18:45:03;99366.53;;;6.01;70.79
13800;BME280;6971;50.028;9.258;2023-03-16T18:50:04;99371.53;;;6.09;70.03
13800;BME280;6971;50.028;9.258;2023-03-16T18:55:13;99369.13;;;6.03;70.58
13800;BME280;6971;50.028;9.258;2023-03-16T19:00:20;99363.16;;;5.99;70.89
13800;BME280;6971;50.028;9.258;2023-03-16T19:05:28;99365.19;;;5.91;70.88
13800;BME280;6971;50.028;9.258;2023-03-16T19:10:33;99365.72;;;5.75;72.69
13800;BME280;6971;50.028;9.258;2023-03-16T19:15:35;99360.16;;;5.59;72.87
13800;BME280;6971;50.028;9.258;2023-03-16T19:20:40;99355.06;;;5.81;71.67
13800;BME280;6971;50.028;9.258;2023-03-16T19:25:41;99359.41;;;5.81;71.76
13800;BME280;6971;50.028;9.258;2023-03-16T19:30:42;99358.13;;;5.93;70.71
13800;BME280;6971;50.028;9.258;2023-03-16T19:35:42;99354.09;;;5.84;72.27
13800;BME280;6971;50.028;9.258;2023-03-16T19:40:43;99358.22;;;5.90;71.18
13800;BME280;6971;50.028;9.258;2023-03-16T19:45:44;99358.31;;;5.88;71.18
13800;BME280;6971;50.028;9.258;2023-03-16T19:50:46;99351.38;;;5.85;71.34
13800;BME280;6971;50.028;9.258;2023-03-16T19:55:50;99353.44;;;5.77;71.38
13800;BME280;6971;50.028;9.258;2023-03-16T20:00:51;99355.25;;;5.75;71.84
13800;BME280;6971;50.028;9.258;2023-03-16T20:05:51;99344.38;;;5.62;72.17
13800;BME280;6971;50.028;9.258;2023-03-16T20:10:57;99345.84;;;5.69;71.36
13800;BME280;6971;50.028;9.258;2023-03-16T20:15:58;99340.63;;;5.69;70.80
13800;BME280;6971;50.028;9.258;2023-03-16T20:20:59;99331.94;;;5.69;71.05
13800;BME280;6971;50.028;9.258;2023-03-16T20:25:59;99339.03;;;5.65;71.32
13800;BME280;6971;50.028;9.258;2023-03-16T20:31:00;99333.06;;;5.61;71.07
13800;BME280;6971;50.028;9.258;2023-03-16T20:36:01;99336.50;;;5.64;70.94
13800;BME280;6971;50.028;9.258;2023-03-16T20:41:01;99329.66;;;5.59;71.31
13800;BME280;6971;50.028;9.258;2023-03-16T20:46:01;99328.09;;;5.54;71.72
13800;BME280;6971;50.028;9.258;2023-03-16T20:51:03;99318.63;;;5.51;71.54
13800;BME280;6971;50.028;9.258;2023-03-16T20:56:03;99314.41;;;5.47;70.86
13800;BME280;6971;50.028;9.258;2023-03-16T21:01:04;99307.38;;;5.47;70.82
13800;BME280;6971;50.028;9.258;2023-03-16T21:06:05;99304.91;;;5.44;70.40
13800;BME280;6971;50.028;9.258;2023-03-16T21:11:18;99309.34;;;5.41;70.57
13800;BME280;6971;50.028;9.258;2023-03-16T21:16:22;99312.06;;;5.39;70.28
13800;BME280;6971;50.028;9.258;2023-03-16T21:21:25;99300.38;;;5.24;72.33
13800;BME280;6971;50.028;9.258;2023-03-16T21:26:26;99305.59;;;5.24;71.27
13800;BME280;6971;50.028;9.258;2023-03-16T21:31:27;99304.13;;;5.15;71.79
13800;BME280;6971;50.028;9.258;2023-03-16T21:36:29;99304.75;;;4.96;72.83
13800;BME280;6971;50.028;9.258;2023-03-16T21:41:30;99299.81;;;4.87;72.45
13800;BME280;6971;50.028;9.258;2023-03-16T21:46:30;99290.50;;;4.78;74.06
13800;BME280;6971;50.028;9.258;2023-03-16T21:51:31;99288.47;;;4.61;74.98
13800;BME280;6971;50.028;9.258;2023-03-16T21:56:32;99284.63;;;4.44;76.36
13800;BME280;6971;50.028;9.258;2023-03-16T22:01:34;99267.56;;;4.04;79.55
13800;BME280;6971;50.028;9.258;2023-03-16T22:06:36;99273.03;;;4.25;77.80
13800;BME280;6971;50.028;9.258;2023-03-16T22:11:36;99274.34;;;4.10;79.62
13800;BME280;6971;50.028;9.258;2023-03-16T22:16:37;99277.00;;;4.38;75.89
13800;BME280;6971;50.028;9.258;2023-03-16T22:21:40;99271.78;;;4.38;76.02
13800;BME280;6971;50.028;9.258;2023-03-16T22:26:41;99262.75;;;4.20;77.58
13800;BME280;6971;50.028;9.258;2023-03-16T22:31:41;99257.94;;;4.35;76.63
13800;BME280;6971;50.028;9.258;2023-03-16T22:36:42;99254.44;;;4.36;75.67
13800;BME280;6971;50.028;9.258;2023-03-16T22:41:42;99254.47;;;4.05;79.07
13800;BME280;6971;50.028;9.258;2023-03-16T22:46:42;99249.78;;;4.17;76.75
13800;BME280;6971;50.028;9.258;2023-03-16T22:51:43;99251.41;;;4.21;77.11
13800;BME280;6971;50.028;9.258;2023-03-16T22:56:45;99244.56;;;4.17;77.31
13800;BME280;6971;50.028;9.258;2023-03-16T23:01:48;99236.19;;;4.07;78.61
13800;BME280;6971;50.028;9.258;2023-03-16T23:06:52;99225.31;;;4.21;77.09
13800;BME280;6971;50.028;9.258;2023-03-16T23:11:53;99222.16;;;4.11;77.98
13800;BME280;6971;50.028;9.258;2023-03-16T23:16:55;99212.66;;;4.09;78.70
13800;BME280;6971;50.028;9.258;2023-03-16T23:21:59;99200.84;;;4.25;76.46
13800;BME280;6971;50.028;9.258;2023-03-16T23:27:00;99211.13;;;4.30;75.81
13800;BME280;6971;50.028;9.258;2023-03-16T23:32:01;99214.34;;;4.38;75.07
13800;BME280;6971;50.028;9.258;2023-03-16T23:37:03;99211.59;;;4.14;77.39
13800;BME280;6971;50.028;9.258;2023-03-16T23:42:03;99208.25;;;4.11;77.74
13800;BME280;6971;50.028;9.258;2023-03-16T23:47:04;99208.66;;;3.97;80.24
13800;BME280;6971;50.028;9.258;2023-03-16T23:52:05;99208.84;;;3.90;79.12
13800;BME280;6971;50.028;9.258;2023-03-16T23:57:06;99215.78;;;3.91;79.67
